Time;durP1;ratioP1;P1;durP2;ratioP2;P2;SDS_P1;SDS_P2;PMS_P1;PMS_P2;Temp;Humidity;BMP_temperature;BMP_pressure;BME280_temperature;BME280_humidity;BME280_pressure;Samples;Min_cycle;Max_cycle;Signal;HPM_P1;HPM_P2
2023/09/07 00:00:36;;;;;;;4.50;3.47;;;;;;;;;;5052596;28;20465;-84
2023/09/07 00:03:05;;;;;;;6.20;3.60;;;;;;;;;;5053509;28;20477;-83
2023/09/07 00:05:32;;;;;;;5.40;3.27;;;;;;;;;;5053231;28;20452;-84
2023/09/07 00:07:59;;;;;;;4.20;3.60;;;;;;;;;;5053369;28;20469;-84
2023/09/07 00:10:27;;;;;;;4.43;3.20;;;;;;;;;;5053202;28;20536;-83
2023/09/07 00:12:55;;;;;;;3.80;2.97;;;;;;;;;;5053690;28;20473;-84
2023/09/07 00:15:23;;;;;;;5.43;4.47;;;;;;;;;;5055130;28;20506;-84
2023/09/07 00:17:51;;;;;;;3.67;3.20;;;;;;;;;;5052921;28;20507;-83
2023/09/07 00:20:21;;;;;;;4.10;3.47;;;;;;;;;;5052466;28;20457;-84
2023/09/07 00:22:48;;;;;;;4.57;3.37;;;;;;;;;;5056966;28;20670;-83
2023/09/07 00:25:16;;;;;;;6.13;3.60;;;;;;;;;;5055019;28;21118;-83
2023/09/07 00:27:43;;;;;;;4.83;3.80;;;;;;;;;;5053679;28;20472;-83
2023/09/07 00:30:11;;;;;;;4.57;3.77;;;;;;;;;;5052113;28;20473;-83
2023/09/07 00:32:38;;;;;;;4.43;3.87;;;;;;;;;;5052447;28;20902;-83
2023/09/07 00:35:06;;;;;;;4.57;3.60;;;;;;;;;;5052801;28;20642;-84
2023/09/07 00:37:35;;;;;;;3.43;3.10;;;;;;;;;;5052436;28;20450;-83
2023/09/07 00:40:03;;;;;;;5.87;4.40;;;;;;;;;;5052832;28;20535;-83
2023/09/07 00:42:30;;;;;;;4.63;3.27;;;;;;;;;;5053476;28;20469;-83
2023/09/07 00:44:58;;;;;;;4.00;3.60;;;;;;;;;;5052083;28;20471;-83
2023/09/07 00:47:25;;;;;;;4.57;3.13;;;;;;;;;;5052094;28;20458;-83
2023/09/07 00:49:52;;;;;;;5.90;3.63;;;;;;;;;;5052084;28;20499;-83
2023/09/07 00:52:20;;;;;;;3.73;3.20;;;;;;;;;;5052074;28;21055;-83
2023/09/07 00:54:49;;;;;;;5.77;3.27;;;;;;;;;;5052580;28;20438;-83
2023/09/07 00:57:16;;;;;;;4.00;3.23;;;;;;;;;;5052276;28;20453;-84
2023/09/07 00:59:43;;;;;;;7.90;3.73;;;;;;;;;;5052983;28;20778;-83
2023/09/07 01:02:11;;;;;;;4.80;3.57;;;;;;;;;;5051954;28;20477;-83
2023/09/07 01:04:38;;;;;;;4.60;3.07;;;;;;;;;;5055933;28;20488;-83
2023/09/07 01:07:15;;;;;;;4.07;3.40;;;;;;;;;;5055355;28;21007;-82
2023/09/07 01:09:43;;;;;;;4.43;3.47;;;;;;;;;;5053300;28;20485;-83
2023/09/07 01:12:16;;;;;;;4.83;3.20;;;;;;;;;;5052211;28;20489;-84
2023/09/07 01:14:44;;;;;;;3.80;3.27;;;;;;;;;;5052003;28;20823;-83
2023/09/07 01:17:11;;;;;;;4.53;3.17;;;;;;;;;;5051800;28;20442;-83
2023/09/07 01:19:39;;;;;;;5.03;3.80;;;;;;;;;;5052062;28;20643;-83
2023/09/07 01:22:08;;;;;;;5.27;3.50;;;;;;;;;;5051204;28;20465;-84
2023/09/07 01:24:36;;;;;;;3.80;3.37;;;;;;;;;;5052073;28;20481;-83
2023/09/07 01:27:04;;;;;;;4.33;3.90;;;;;;;;;;5051368;28;20518;-83
2023/09/07 01:29:31;;;;;;;4.43;3.17;;;;;;;;;;5051935;28;20544;-84
2023/09/07 01:31:58;;;;;;;4.77;3.83;;;;;;;;;;5051235;28;20901;-84
2023/09/07 01:34:26;;;;;;;6.10;3.27;;;;;;;;;;5051640;28;20466;-84
2023/09/07 01:36:53;;;;;;;5.50;4.03;;;;;;;;;;5051144;28;20500;-83
2023/09/07 01:39:22;;;;;;;4.13;3.70;;;;;;;;;;5031874;28;20508;-83
2023/09/07 01:41:49;;;;;;;3.63;2.70;;;;;;;;;;5035679;28;20469;-84
2023/09/07 01:44:16;;;;;;;6.00;3.30;;;;;;;;;;5050988;28;20477;-83
2023/09/07 01:46:43;;;;;;;3.60;2.90;;;;;;;;;;5050878;28;20500;-83
2023/09/07 01:49:11;;;;;;;4.87;3.57;;;;;;;;;;5054699;28;20476;-83
2023/09/07 01:51:38;;;;;;;5.10;3.50;;;;;;;;;;5054860;28;20497;-83
2023/09/07 01:54:05;;;;;;;4.50;4.07;;;;;;;;;;5051301;28;20891;-83
2023/09/07 01:56:34;;;;;;;4.60;3.70;;;;;;;;;;5051504;28;20871;-83
2023/09/07 01:59:01;;;;;;;4.90;3.10;;;;;;;;;;5054492;28;20481;-83
2023/09/07 02:01:30;;;;;;;3.33;3.00;;;;;;;;;;5051030;28;20538;-83
2023/09/07 02:03:57;;;;;;;6.20;3.60;;;;;;;;;;5051049;28;20568;-83
2023/09/07 02:06:25;;;;;;;4.60;3.53;;;;;;;;;;5050928;28;20972;-83
2023/09/07 02:08:52;;;;;;;4.43;3.23;;;;;;;;;;5050678;28;20487;-83
2023/09/07 02:11:19;;;;;;;4.07;2.87;;;;;;;;;;5050605;28;20497;-84
2023/09/07 02:13:49;;;;;;;4.53;3.73;;;;;;;;;;5051057;28;20473;-83
2023/09/07 02:16:18;;;;;;;4.47;3.47;;;;;;;;;;5051036;28;20477;-83
2023/09/07 02:18:46;;;;;;;3.43;2.83;;;;;;;;;;5051363;28;20441;-84
2023/09/07 02:21:14;;;;;;;3.97;3.10;;;;;;;;;;5050812;28;20465;-82
2023/09/07 02:23:41;;;;;;;4.63;3.47;;;;;;;;;;5050654;28;20864;-83
2023/09/07 02:26:09;;;;;;;9.30;3.73;;;;;;;;;;5050812;28;20872;-83
2023/09/07 02:28:36;;;;;;;6.13;3.63;;;;;;;;;;5051054;28;20504;-83
2023/09/07 02:31:08;;;;;;;4.60;3.80;;;;;;;;;;5050960;28;20504;-84
2023/09/07 02:33:35;;;;;;;5.00;3.87;;;;;;;;;;5050954;28;20472;-83
2023/09/07 02:36:02;;;;;;;5.20;3.27;;;;;;;;;;5050566;28;20449;-84
2023/09/07 02:38:30;;;;;;;4.33;3.60;;;;;;;;;;5050867;28;20484;-84
2023/09/07 02:40:57;;;;;;;5.40;3.83;;;;;;;;;;5050968;28;20473;-83
2023/09/07 02:43:25;;;;;;;3.80;3.30;;;;;;;;;;5051794;28;20441;-83
2023/09/07 02:45:52;;;;;;;4.17;3.77;;;;;;;;;;5054011;28;20468;-84
2023/09/07 02:48:21;;;;;;;4.10;3.53;;;;;;;;;;5054751;28;20473;-83
2023/09/07 02:50:50;;;;;;;5.07;2.83;;;;;;;;;;5054588;28;20465;-83
2023/09/07 02:53:17;;;;;;;4.63;3.83;;;;;;;;;;5054506;28;20456;-83
2023/09/07 02:55:45;;;;;;;4.90;3.37;;;;;;;;;;5054730;28;20483;-83
2023/09/07 02:58:12;;;;;;;4.63;3.20;;;;;;;;;;5060596;22;20532;-60
2023/09/07 03:00:44;;;;;;;4.13;3.03;;;;;;;;;;5033270;28;20473;-59
2023/09/07 03:05:41;;;;;;;5.23;3.20;;;;;;;;;;5031864;28;20486;-60
2023/09/07 03:08:09;;;;;;;5.20;3.20;;;;;;;;;;5033394;28;20473;-57
2023/09/07 03:10:37;;;;;;;4.60;3.33;;;;;;;;;;5033686;28;20533;-58
2023/09/07 03:13:05;;;;;;;5.37;3.50;;;;;;;;;;5033445;28;20498;-56
2023/09/07 03:15:32;;;;;;;4.27;3.60;;;;;;;;;;5032612;28;20461;-58
2023/09/07 03:17:59;;;;;;;4.90;3.17;;;;;;;;;;5033315;28;20967;-57
2023/09/07 03:20:27;;;;;;;4.80;3.13;;;;;;;;;;5033487;28;20500;-57
2023/09/07 03:22:57;;;;;;;4.80;3.23;;;;;;;;;;5033580;28;20810;-57
2023/09/07 03:25:24;;;;;;;4.13;3.33;;;;;;;;;;5032875;28;21049;-58
2023/09/07 03:27:51;;;;;;;4.40;3.50;;;;;;;;;;5032736;28;20473;-57
2023/09/07 03:30:19;;;;;;;3.43;2.87;;;;;;;;;;5033137;28;20434;-58
2023/09/07 03:32:46;;;;;;;4.90;3.80;;;;;;;;;;5033338;28;20472;-56
2023/09/07 03:35:15;;;;;;;4.40;3.23;;;;;;;;;;5033103;28;20445;-57
2023/09/07 03:37:43;;;;;;;3.90;3.10;;;;;;;;;;5032692;28;20450;-57
2023/09/07 03:40:12;;;;;;;6.13;3.80;;;;;;;;;;5032846;28;20543;-58
2023/09/07 03:42:40;;;;;;;5.17;2.87;;;;;;;;;;5032210;28;20502;-58
2023/09/07 03:45:08;;;;;;;4.67;3.00;;;;;;;;;;5032964;28;20484;-57
2023/09/07 03:47:35;;;;;;;4.23;3.20;;;;;;;;;;5032383;28;20453;-57
2023/09/07 03:50:03;;;;;;;4.63;2.77;;;;;;;;;;5032977;28;20504;-58
2023/09/07 03:52:30;;;;;;;5.57;3.50;;;;;;;;;;5032951;28;20494;-57
2023/09/07 03:54:58;;;;;;;5.23;4.17;;;;;;;;;;5031545;28;20454;-56
2023/09/07 03:57:27;;;;;;;4.77;3.17;;;;;;;;;;5032540;28;20474;-57
2023/09/07 03:59:55;;;;;;;4.07;3.33;;;;;;;;;;5032795;28;20525;-59
2023/09/07 04:02:22;;;;;;;4.40;3.30;;;;;;;;;;5032755;28;20463;-59
2023/09/07 04:04:50;;;;;;;3.90;3.20;;;;;;;;;;5032764;28;20513;-57
2023/09/07 04:07:18;;;;;;;4.80;3.40;;;;;;;;;;5031822;28;20530;-57
2023/09/07 04:09:45;;;;;;;5.60;3.00;;;;;;;;;;5032386;28;20933;-58
2023/09/07 04:12:13;;;;;;;3.90;3.53;;;;;;;;;;5032057;28;20984;-57
2023/09/07 04:14:42;;;;;;;6.07;3.77;;;;;;;;;;5031318;28;20467;-57
2023/09/07 04:17:09;;;;;;;5.10;3.20;;;;;;;;;;5029920;28;20492;-57
2023/09/07 04:19:36;;;;;;;4.80;3.37;;;;;;;;;;5030605;28;20446;-58
2023/09/07 04:22:04;;;;;;;3.57;2.87;;;;;;;;;;5031238;28;20647;-58
2023/09/07 04:24:31;;;;;;;4.27;3.20;;;;;;;;;;5031006;28;20498;-58
2023/09/07 04:27:00;;;;;;;5.13;3.53;;;;;;;;;;5030056;28;20482;-57
2023/09/07 04:29:28;;;;;;;4.63;3.70;;;;;;;;;;5031760;28;20448;-57
2023/09/07 04:31:56;;;;;;;4.67;3.43;;;;;;;;;;5031981;28;20494;-57
2023/09/07 04:34:23;;;;;;;4.30;3.33;;;;;;;;;;5032097;28;20450;-57
2023/09/07 04:36:51;;;;;;;4.63;3.30;;;;;;;;;;5031616;28;20474;-58
2023/09/07 04:39:18;;;;;;;4.40;3.67;;;;;;;;;;5031670;28;20525;-59
2023/09/07 04:41:45;;;;;;;3.90;3.10;;;;;;;;;;5032219;28;20467;-58
2023/09/07 04:44:12;;;;;;;5.10;3.33;;;;;;;;;;5031095;28;20932;-57
2023/09/07 04:46:40;;;;;;;4.07;3.37;;;;;;;;;;5030422;28;20471;-57
2023/09/07 04:49:08;;;;;;;3.70;3.20;;;;;;;;;;5031578;28;20473;-57
2023/09/07 04:51:35;;;;;;;5.27;3.93;;;;;;;;;;5031205;28;20466;-58
2023/09/07 04:54:03;;;;;;;7.40;5.73;;;;;;;;;;5031691;28;21005;-56
2023/09/07 04:56:30;;;;;;;5.57;3.30;;;;;;;;;;5030779;28;20451;-59
2023/09/07 04:58:57;;;;;;;5.63;4.03;;;;;;;;;;5031093;28;20533;-56
2023/09/07 05:01:26;;;;;;;5.37;3.30;;;;;;;;;;5030093;28;20748;-57
2023/09/07 05:03:54;;;;;;;4.97;3.90;;;;;;;;;;5031202;28;20474;-58
2023/09/07 05:06:23;;;;;;;5.23;3.17;;;;;;;;;;5029463;28;21066;-57
2023/09/07 05:08:50;;;;;;;5.30;3.60;;;;;;;;;;5031176;28;20537;-57
2023/09/07 05:11:17;;;;;;;4.27;3.13;;;;;;;;;;5030600;28;20538;-57
2023/09/07 05:13:45;;;;;;;5.80;3.60;;;;;;;;;;5029083;28;20975;-57
2023/09/07 05:16:12;;;;;;;4.00;3.30;;;;;;;;;;5029947;28;20568;-58
2023/09/07 05:18:39;;;;;;;5.13;3.23;;;;;;;;;;5031004;28;20526;-60
2023/09/07 05:21:13;;;;;;;5.57;4.00;;;;;;;;;;5030435;28;20883;-57
2023/09/07 05:23:42;;;;;;;5.10;3.47;;;;;;;;;;5028336;28;20509;-58
2023/09/07 05:26:09;;;;;;;5.73;4.10;;;;;;;;;;5028953;28;20477;-57
2023/09/07 05:28:36;;;;;;;4.30;3.50;;;;;;;;;;5028928;28;20525;-58
2023/09/07 05:31:03;;;;;;;6.23;4.00;;;;;;;;;;5027267;28;21204;-58
2023/09/07 05:33:31;;;;;;;3.63;3.20;;;;;;;;;;5027981;28;20525;-59
2023/09/07 05:35:58;;;;;;;5.73;4.17;;;;;;;;;;5028949;28;20461;-62
2023/09/07 05:38:25;;;;;;;4.97;3.30;;;;;;;;;;5029918;28;20520;-57
2023/09/07 05:40:54;;;;;;;5.47;4.60;;;;;;;;;;5028977;28;20888;-58
2023/09/07 05:43:21;;;;;;;5.00;3.90;;;;;;;;;;5029317;28;20520;-57
2023/09/07 05:45:48;;;;;;;4.93;3.37;;;;;;;;;;5028882;28;21167;-56
2023/09/07 05:48:17;;;;;;;4.70;3.20;;;;;;;;;;5029051;28;20525;-57
2023/09/07 05:50:45;;;;;;;5.03;3.90;;;;;;;;;;5028763;28;20533;-57
2023/09/07 05:53:12;;;;;;;4.23;3.77;;;;;;;;;;5028629;28;21054;-57
2023/09/07 05:55:39;;;;;;;4.03;3.57;;;;;;;;;;5029735;28;20937;-59
2023/09/07 05:58:09;;;;;;;8.27;3.70;;;;;;;;;;5029884;28;20481;-56
2023/09/07 06:00:37;;;;;;;6.27;4.57;;;;;;;;;;5029684;28;20474;-57
2023/09/07 06:03:04;;;;;;;5.33;3.70;;;;;;;;;;5030175;28;20474;-58
2023/09/07 06:05:31;;;;;;;6.10;3.77;;;;;;;;;;5029950;28;21062;-59
2023/09/07 06:07:59;;;;;;;4.17;3.33;;;;;;;;;;5030368;28;20447;-57
2023/09/07 06:10:26;;;;;;;4.83;3.80;;;;;;;;;;5029068;28;21141;-61
2023/09/07 06:12:53;;;;;;;4.43;3.43;;;;;;;;;;5029251;28;20907;-58
2023/09/07 06:15:22;;;;;;;4.53;3.53;;;;;;;;;;5028779;28;20948;-59
2023/09/07 06:17:49;;;;;;;4.73;3.67;;;;;;;;;;5030907;28;20881;-57
2023/09/07 06:20:18;;;;;;;4.43;3.53;;;;;;;;;;5033502;28;20508;-60
2023/09/07 06:22:46;;;;;;;4.50;3.80;;;;;;;;;;5034173;28;20975;-56
2023/09/07 06:25:13;;;;;;;6.90;5.10;;;;;;;;;;5034297;28;20476;-57
2023/09/07 06:27:40;;;;;;;4.30;3.50;;;;;;;;;;5033462;28;20512;-58
2023/09/07 06:30:08;;;;;;;3.90;3.50;;;;;;;;;;5034035;28;20487;-57
2023/09/07 06:32:38;;;;;;;5.00;4.50;;;;;;;;;;5033973;28;20497;-57
2023/09/07 06:35:06;;;;;;;6.17;4.80;;;;;;;;;;5034124;28;20453;-58
2023/09/07 06:37:33;;;;;;;4.93;3.70;;;;;;;;;;5034042;28;20473;-58
2023/09/07 06:40:00;;;;;;;5.53;4.00;;;;;;;;;;5033219;28;20527;-57
2023/09/07 06:42:27;;;;;;;6.30;4.03;;;;;;;;;;5034227;28;20486;-57
2023/09/07 06:44:54;;;;;;;6.30;4.30;;;;;;;;;;5034263;28;20525;-58
2023/09/07 06:47:22;;;;;;;4.93;4.00;;;;;;;;;;5033339;28;20534;-57
2023/09/07 06:49:50;;;;;;;5.40;4.20;;;;;;;;;;5034176;28;20521;-56
2023/09/07 06:52:17;;;;;;;6.20;4.10;;;;;;;;;;5033314;28;20504;-58
2023/09/07 06:54:45;;;;;;;5.20;4.70;;;;;;;;;;5033728;28;20462;-58
2023/09/07 06:57:12;;;;;;;5.13;4.03;;;;;;;;;;5030334;28;20442;-58
2023/09/07 06:59:39;;;;;;;5.53;3.80;;;;;;;;;;5033754;28;21022;-58
2023/09/07 07:02:07;;;;;;;6.03;3.90;;;;;;;;;;5033443;28;20458;-57
2023/09/07 07:04:35;;;;;;;5.20;3.70;;;;;;;;;;5033081;28;20477;-61
2023/09/07 07:07:04;;;;;;;4.17;3.30;;;;;;;;;;5033353;28;20482;-59
2023/09/07 07:09:31;;;;;;;4.30;3.90;;;;;;;;;;5033001;28;20460;-57
2023/09/07 07:12:00;;;;;;;4.53;3.40;;;;;;;;;;5033352;28;20457;-59
2023/09/07 07:14:28;;;;;;;5.40;3.73;;;;;;;;;;5033884;28;20815;-58
2023/09/07 07:16:55;;;;;;;4.87;3.50;;;;;;;;;;5033307;28;20905;-56
2023/09/07 07:19:23;;;;;;;6.90;3.70;;;;;;;;;;5033383;28;20446;-57
2023/09/07 07:21:50;;;;;;;4.80;3.50;;;;;;;;;;5045902;28;20472;-57
2023/09/07 07:24:19;;;;;;;7.13;3.50;;;;;;;;;;5032703;28;21009;-58
2023/09/07 07:26:46;;;;;;;4.30;3.33;;;;;;;;;;5032186;28;21039;-57
2023/09/07 07:29:13;;;;;;;5.43;3.93;;;;;;;;;;5031762;28;20779;-58
2023/09/07 07:31:41;;;;;;;5.13;3.70;;;;;;;;;;5033136;28;20518;-57
2023/09/07 07:34:08;;;;;;;5.60;3.80;;;;;;;;;;5032396;28;20474;-58
2023/09/07 07:36:35;;;;;;;4.90;3.70;;;;;;;;;;5032693;28;20458;-57
2023/09/07 07:39:03;;;;;;;4.00;3.50;;;;;;;;;;5032486;28;20524;-58
2023/09/07 07:41:31;;;;;;;5.20;4.10;;;;;;;;;;5031559;28;20892;-56
2023/09/07 07:43:59;;;;;;;4.20;3.70;;;;;;;;;;5033210;28;20485;-58
2023/09/07 07:46:26;;;;;;;4.07;3.60;;;;;;;;;;5032830;28;21004;-59
2023/09/07 07:48:53;;;;;;;5.20;3.70;;;;;;;;;;5032845;28;20470;-57
2023/09/07 07:51:20;;;;;;;4.37;3.63;;;;;;;;;;5031908;28;20528;-61
2023/09/07 07:53:48;;;;;;;6.13;4.10;;;;;;;;;;5032353;28;20466;-57
2023/09/07 07:56:19;;;;;;;7.60;4.30;;;;;;;;;;5032446;28;20852;-57
2023/09/07 07:58:47;;;;;;;6.53;4.60;;;;;;;;;;5031694;28;20853;-57
2023/09/07 08:01:15;;;;;;;6.00;4.40;;;;;;;;;;5032046;28;20520;-58
2023/09/07 08:03:42;;;;;;;4.97;4.00;;;;;;;;;;5032524;28;20476;-59
2023/09/07 08:06:10;;;;;;;5.00;4.27;;;;;;;;;;5032391;28;20478;-57
2023/09/07 08:08:37;;;;;;;4.60;4.00;;;;;;;;;;5032716;28;20934;-58
2023/09/07 08:11:05;;;;;;;8.83;4.10;;;;;;;;;;5031700;28;21087;-57
2023/09/07 08:13:33;;;;;;;6.37;4.07;;;;;;;;;;5032641;28;20446;-59
2023/09/07 08:16:02;;;;;;;4.70;4.10;;;;;;;;;;5027721;28;20459;-58
2023/09/07 08:18:30;;;;;;;5.03;4.03;;;;;;;;;;5027947;28;20498;-60
2023/09/07 08:20:57;;;;;;;4.70;4.00;;;;;;;;;;5030243;28;20470;-59
2023/09/07 08:23:24;;;;;;;4.67;3.63;;;;;;;;;;5029895;28;20899;-59
2023/09/07 08:25:52;;;;;;;5.07;4.40;;;;;;;;;;5023741;28;20510;-58
2023/09/07 08:28:22;;;;;;;4.90;4.33;;;;;;;;;;5010792;28;20538;-61
2023/09/07 08:30:50;;;;;;;4.97;4.10;;;;;;;;;;5029174;28;20959;-60
2023/09/07 08:33:19;;;;;;;4.63;4.00;;;;;;;;;;5029006;28;20478;-59
2023/09/07 08:35:46;;;;;;;6.70;4.53;;;;;;;;;;5030788;28;20522;-60
2023/09/07 08:38:14;;;;;;;6.50;4.23;;;;;;;;;;5031939;28;20538;-60
2023/09/07 08:40:41;;;;;;;5.87;4.47;;;;;;;;;;5023530;28;20442;-60
2023/09/07 08:43:11;;;;;;;5.37;4.20;;;;;;;;;;5031074;28;20474;-61
2023/09/07 08:45:41;;;;;;;4.30;3.80;;;;;;;;;;5031485;28;20516;-59
2023/09/07 08:48:09;;;;;;;5.27;3.80;;;;;;;;;;5031626;28;20500;-61
2023/09/07 08:50:38;;;;;;;4.03;3.63;;;;;;;;;;5030925;28;20530;-62
2023/09/07 08:53:07;;;;;;;4.93;4.43;;;;;;;;;;5029937;28;20549;-60
2023/09/07 08:55:35;;;;;;;6.07;4.70;;;;;;;;;;5030356;28;20453;-60
2023/09/07 08:58:02;;;;;;;5.10;3.87;;;;;;;;;;5030906;28;20474;-60
2023/09/07 09:00:30;;;;;;;4.47;3.40;;;;;;;;;;5030495;28;20435;-61
2023/09/07 09:02:58;;;;;;;4.47;3.97;;;;;;;;;;5031508;28;20528;-61
2023/09/07 09:05:25;;;;;;;5.70;4.13;;;;;;;;;;5023521;28;20489;-60
2023/09/07 09:08:04;;;;;;;7.83;4.33;;;;;;;;;;5030815;28;20477;-60
2023/09/07 09:10:31;;;;;;;4.37;3.97;;;;;;;;;;5031039;28;20533;-60
2023/09/07 09:12:59;;;;;;;5.10;3.67;;;;;;;;;;5030477;28;20537;-60
2023/09/07 09:15:27;;;;;;;8.63;3.83;;;;;;;;;;5029155;28;20520;-59
2023/09/07 09:17:54;;;;;;;4.70;4.20;;;;;;;;;;5022939;28;20458;-61
2023/09/07 09:20:23;;;;;;;4.87;3.80;;;;;;;;;;5029885;28;20438;-60
2023/09/07 09:22:50;;;;;;;3.90;3.47;;;;;;;;;;5029982;28;20517;-61
2023/09/07 09:25:19;;;;;;;5.50;4.80;;;;;;;;;;5028807;28;20525;-60
2023/09/07 09:27:46;;;;;;;6.90;4.80;;;;;;;;;;5026836;28;21039;-60
2023/09/07 09:30:15;;;;;;;5.17;4.00;;;;;;;;;;5031170;28;20944;-60
2023/09/07 09:32:43;;;;;;;4.53;4.10;;;;;;;;;;5022761;28;20462;-61
2023/09/07 09:35:10;;;;;;;8.30;4.77;;;;;;;;;;5030886;28;20462;-60
2023/09/07 09:37:45;;;;;;;4.70;4.20;;;;;;;;;;5028488;28;21284;-60
2023/09/07 09:40:13;;;;;;;5.00;3.97;;;;;;;;;;5030517;28;20521;-61
2023/09/07 09:42:43;;;;;;;5.10;4.60;;;;;;;;;;5030653;28;20529;-61
2023/09/07 09:45:10;;;;;;;4.27;3.50;;;;;;;;;;5030798;28;20817;-60
2023/09/07 09:47:39;;;;;;;5.40;4.27;;;;;;;;;;5029267;28;20569;-61
2023/09/07 09:50:08;;;;;;;6.97;4.30;;;;;;;;;;5029837;28;20512;-60
2023/09/07 09:52:36;;;;;;;7.13;4.60;;;;;;;;;;5029969;28;20874;-61
2023/09/07 09:55:05;;;;;;;5.63;4.47;;;;;;;;;;5030771;28;20525;-61
2023/09/07 09:57:34;;;;;;;5.20;4.30;;;;;;;;;;5029805;28;20445;-61
2023/09/07 10:00:10;;;;;;;4.20;3.80;;;;;;;;;;5028992;28;20458;-60
2023/09/07 10:02:39;;;;;;;5.63;4.30;;;;;;;;;;5030289;28;20462;-60
2023/09/07 10:05:09;;;;;;;5.60;4.97;;;;;;;;;;5030203;28;20469;-62
2023/09/07 10:07:43;;;;;;;5.70;3.80;;;;;;;;;;5029684;28;20489;-60
2023/09/07 10:10:12;;;;;;;5.50;4.10;;;;;;;;;;5028111;28;20494;-60
2023/09/07 10:12:42;;;;;;;4.73;3.90;;;;;;;;;;5029472;28;20585;-60
2023/09/07 10:15:22;;;;;;;5.40;4.13;;;;;;;;;;5030477;28;20493;-60
2023/09/07 10:17:52;;;;;;;4.67;4.10;;;;;;;;;;5030057;28;20466;-61
2023/09/07 10:20:22;;;;;;;5.67;4.00;;;;;;;;;;5030466;28;20446;-61
2023/09/07 10:22:49;;;;;;;5.17;4.20;;;;;;;;;;5029739;28;21014;-61
2023/09/07 10:25:24;;;;;;;6.57;4.70;;;;;;;;;;5029639;28;20477;-61
2023/09/07 10:27:51;;;;;;;4.83;3.70;;;;;;;;;;5027710;28;20535;-61
2023/09/07 10:30:23;;;;;;;4.43;3.90;;;;;;;;;;5028231;28;20884;-60
2023/09/07 10:32:52;;;;;;;4.30;3.60;;;;;;;;;;5028808;28;20466;-60
2023/09/07 10:35:21;;;;;;;4.80;4.30;;;;;;;;;;5029627;28;20466;-61
2023/09/07 10:37:49;;;;;;;6.63;4.43;;;;;;;;;;5029234;28;20517;-61
2023/09/07 10:40:23;;;;;;;5.93;4.50;;;;;;;;;;5029414;28;20512;-61
2023/09/07 10:42:50;;;;;;;4.83;4.17;;;;;;;;;;5028485;28;20493;-62
2023/09/07 10:45:18;;;;;;;4.80;4.30;;;;;;;;;;5028881;28;20489;-58
2023/09/07 10:47:45;;;;;;;6.10;4.10;;;;;;;;;;5029564;28;21061;-61
2023/09/07 10:50:14;;;;;;;5.50;4.17;;;;;;;;;;5029013;28;20996;-60
2023/09/07 10:52:42;;;;;;;4.50;4.00;;;;;;;;;;5028954;28;20974;-61
2023/09/07 10:55:11;;;;;;;4.87;4.27;;;;;;;;;;5029207;28;20530;-59
2023/09/07 10:57:44;;;;;;;5.57;4.50;;;;;;;;;;5027739;28;20441;-62
2023/09/07 11:00:13;;;;;;;5.40;4.00;;;;;;;;;;5026995;28;20450;-61
2023/09/07 11:02:41;;;;;;;5.60;4.50;;;;;;;;;;5026639;28;20541;-61
2023/09/07 11:05:09;;;;;;;5.23;4.83;;;;;;;;;;5030645;28;20551;-59
2023/09/07 11:07:40;;;;;;;5.60;4.60;;;;;;;;;;5032327;28;20891;-60
2023/09/07 11:10:08;;;;;;;6.37;3.93;;;;;;;;;;5031947;28;20457;-61
2023/09/07 11:12:39;;;;;;;4.80;4.23;;;;;;;;;;5031925;28;20465;-62
2023/09/07 11:15:06;;;;;;;5.77;5.17;;;;;;;;;;5030637;28;20538;-61
2023/09/07 11:17:34;;;;;;;6.43;4.87;;;;;;;;;;5032269;28;20500;-61
2023/09/07 11:20:06;;;;;;;4.67;4.27;;;;;;;;;;5033009;28;20481;-61
2023/09/07 11:22:33;;;;;;;5.30;4.70;;;;;;;;;;5031938;28;20465;-61
2023/09/07 11:25:03;;;;;;;4.80;4.20;;;;;;;;;;5032500;28;20960;-61
2023/09/07 11:27:31;;;;;;;4.60;4.10;;;;;;;;;;5032517;28;20509;-62
2023/09/07 11:30:00;;;;;;;5.50;4.10;;;;;;;;;;5032694;28;20472;-61
2023/09/07 11:32:34;;;;;;;7.10;5.17;;;;;;;;;;5033015;28;20470;-61
2023/09/07 11:35:01;;;;;;;5.23;3.60;;;;;;;;;;5033412;28;20529;-60
2023/09/07 11:37:29;;;;;;;5.17;4.67;;;;;;;;;;5032432;28;20990;-61
2023/09/07 11:39:56;;;;;;;4.47;4.07;;;;;;;;;;5032272;28;20438;-62
2023/09/07 11:42:24;;;;;;;5.90;3.87;;;;;;;;;;5033362;28;20549;-60
2023/09/07 11:44:52;;;;;;;6.37;4.67;;;;;;;;;;5032815;28;20532;-60
2023/09/07 11:47:19;;;;;;;5.73;4.30;;;;;;;;;;5032545;28;20573;-61
2023/09/07 11:49:46;;;;;;;8.60;5.03;;;;;;;;;;5032545;28;20521;-59
2023/09/07 11:52:13;;;;;;;6.20;4.23;;;;;;;;;;5033062;28;20469;-58
2023/09/07 11:54:41;;;;;;;5.30;4.67;;;;;;;;;;5032896;28;20474;-58
2023/09/07 11:57:09;;;;;;;5.83;4.67;;;;;;;;;;5032845;28;20869;-58
2023/09/07 11:59:37;;;;;;;6.03;4.83;;;;;;;;;;5032867;28;20812;-58
2023/09/07 12:02:06;;;;;;;4.83;4.00;;;;;;;;;;5030937;28;21031;-57
2023/09/07 12:04:33;;;;;;;7.03;4.07;;;;;;;;;;5027801;28;20487;-56
2023/09/07 12:07:00;;;;;;;5.10;4.00;;;;;;;;;;5031519;28;20559;-57
2023/09/07 12:09:27;;;;;;;5.13;4.00;;;;;;;;;;5027918;28;20964;-57
2023/09/07 12:11:55;;;;;;;4.23;3.83;;;;;;;;;;5031229;28;20545;-57
2023/09/07 12:14:22;;;;;;;4.63;4.13;;;;;;;;;;5030984;28;20545;-56
2023/09/07 12:16:50;;;;;;;4.73;4.23;;;;;;;;;;5031876;28;20474;-57
2023/09/07 12:19:18;;;;;;;5.17;4.33;;;;;;;;;;5032057;28;20528;-57
2023/09/07 12:21:45;;;;;;;4.33;3.93;;;;;;;;;;5030262;28;20466;-57
2023/09/07 12:24:13;;;;;;;4.73;3.37;;;;;;;;;;5031200;28;20875;-57
2023/09/07 12:26:40;;;;;;;5.20;4.03;;;;;;;;;;5031356;28;20453;-57
2023/09/07 12:29:07;;;;;;;4.40;3.93;;;;;;;;;;5032184;28;20466;-56
2023/09/07 12:31:35;;;;;;;4.47;4.07;;;;;;;;;;5031593;28;20709;-56
2023/09/07 12:34:04;;;;;;;5.97;3.83;;;;;;;;;;5030986;28;20470;-56
2023/09/07 12:36:32;;;;;;;5.20;4.60;;;;;;;;;;5031183;28;20454;-56
2023/09/07 12:39:01;;;;;;;4.57;3.83;;;;;;;;;;5031392;28;20521;-56
2023/09/07 12:41:28;;;;;;;5.40;4.87;;;;;;;;;;5031504;28;20988;-56
2023/09/07 12:43:55;;;;;;;5.40;4.67;;;;;;;;;;5030193;28;20461;-57
2023/09/07 12:46:23;;;;;;;5.30;4.50;;;;;;;;;;5030164;28;20473;-55
2023/09/07 12:48:50;;;;;;;4.60;4.03;;;;;;;;;;5030290;28;20478;-57
2023/09/07 12:51:19;;;;;;;6.43;4.40;;;;;;;;;;5031153;28;21004;-57
2023/09/07 12:53:46;;;;;;;5.17;4.30;;;;;;;;;;5031164;28;20443;-56
2023/09/07 12:56:15;;;;;;;5.23;4.50;;;;;;;;;;5030392;28;20813;-56
2023/09/07 12:58:42;;;;;;;5.00;4.50;;;;;;;;;;5031558;28;20550;-56
2023/09/07 13:01:10;;;;;;;4.67;4.17;;;;;;;;;;5031169;28;20466;-58
2023/09/07 13:03:39;;;;;;;5.60;4.43;;;;;;;;;;5030717;28;20803;-55
2023/09/07 13:06:06;;;;;;;4.93;4.47;;;;;;;;;;5031284;28;20546;-57
2023/09/07 13:08:34;;;;;;;6.20;4.27;;;;;;;;;;5030874;28;20517;-55
2023/09/07 13:11:02;;;;;;;5.90;4.10;;;;;;;;;;5030255;28;20510;-57
2023/09/07 13:13:29;;;;;;;5.80;4.73;;;;;;;;;;5031502;28;20469;-56
2023/09/07 13:15:56;;;;;;;5.37;4.87;;;;;;;;;;5030255;28;20482;-55
2023/09/07 13:18:24;;;;;;;4.53;4.13;;;;;;;;;;5030055;28;20470;-56
2023/09/07 13:20:55;;;;;;;5.57;4.80;;;;;;;;;;5029211;28;20443;-56
2023/09/07 13:23:22;;;;;;;5.00;4.50;;;;;;;;;;5031083;28;20466;-55
2023/09/07 13:25:51;;;;;;;6.17;4.90;;;;;;;;;;5030440;28;20474;-57
2023/09/07 13:28:18;;;;;;;5.10;3.97;;;;;;;;;;5029959;28;20912;-55
2023/09/07 13:30:45;;;;;;;5.10;4.37;;;;;;;;;;5030344;28;20497;-55
2023/09/07 13:33:12;;;;;;;5.13;4.63;;;;;;;;;;5030433;28;20561;-56
2023/09/07 13:35:40;;;;;;;5.33;4.30;;;;;;;;;;5030243;28;20517;-55
2023/09/07 13:38:07;;;;;;;5.33;4.70;;;;;;;;;;5030339;28;20438;-56
2023/09/07 13:40:34;;;;;;;6.23;4.47;;;;;;;;;;5031015;28;20525;-55
2023/09/07 13:43:03;;;;;;;5.90;4.70;;;;;;;;;;5030693;28;20541;-55
2023/09/07 13:45:30;;;;;;;5.27;4.73;;;;;;;;;;5030316;28;20971;-55
2023/09/07 13:47:58;;;;;;;4.53;4.13;;;;;;;;;;5030669;28;20919;-55
2023/09/07 13:50:25;;;;;;;6.90;5.13;;;;;;;;;;5030781;28;20438;-55
2023/09/07 13:52:52;;;;;;;5.33;4.27;;;;;;;;;;5029579;28;20923;-56
2023/09/07 13:55:19;;;;;;;4.63;4.23;;;;;;;;;;5030295;28;20474;-55
2023/09/07 13:57:47;;;;;;;6.00;4.67;;;;;;;;;;5030818;28;20824;-55
2023/09/07 14:00:16;;;;;;;4.87;4.37;;;;;;;;;;5030835;28;20514;-56
2023/09/07 14:02:43;;;;;;;4.60;3.70;;;;;;;;;;5030144;28;20541;-55
2023/09/07 14:05:11;;;;;;;4.80;4.03;;;;;;;;;;5030140;28;20457;-54
2023/09/07 14:07:38;;;;;;;5.00;4.47;;;;;;;;;;5029696;28;20474;-55
2023/09/07 14:10:06;;;;;;;5.70;5.00;;;;;;;;;;5030859;28;20485;-56
2023/09/07 14:12:33;;;;;;;5.53;4.90;;;;;;;;;;5030224;28;20467;-56
2023/09/07 14:15:00;;;;;;;4.70;4.13;;;;;;;;;;5029269;28;20840;-55
2023/09/07 14:17:29;;;;;;;6.30;4.67;;;;;;;;;;5030359;28;20534;-57
2023/09/07 14:19:56;;;;;;;5.10;4.60;;;;;;;;;;5030055;28;20478;-57
2023/09/07 14:22:23;;;;;;;6.17;4.97;;;;;;;;;;5029742;28;20513;-55
2023/09/07 14:24:50;;;;;;;6.60;4.40;;;;;;;;;;5028903;28;20501;-56
2023/09/07 14:27:17;;;;;;;6.80;4.67;;;;;;;;;;5030261;28;20521;-55
2023/09/07 14:29:45;;;;;;;4.90;4.50;;;;;;;;;;5030573;28;20866;-58
2023/09/07 14:32:12;;;;;;;4.83;4.33;;;;;;;;;;5029674;28;20550;-56
2023/09/07 14:34:40;;;;;;;4.83;4.33;;;;;;;;;;5029215;28;20548;-56
2023/09/07 14:37:08;;;;;;;5.50;5.00;;;;;;;;;;5030304;28;20525;-56
2023/09/07 14:39:35;;;;;;;4.93;4.30;;;;;;;;;;5033458;28;20484;-56
2023/09/07 14:42:03;;;;;;;6.10;4.60;;;;;;;;;;5033395;28;20458;-54
2023/09/07 14:44:30;;;;;;;5.30;4.77;;;;;;;;;;5034108;28;20470;-58
2023/09/07 14:46:57;;;;;;;5.30;4.57;;;;;;;;;;5032355;28;20446;-57
2023/09/07 14:49:25;;;;;;;5.03;4.27;;;;;;;;;;5032767;28;20510;-57